Aviation Digital Data Service (ADDS)

Output produced by METARs form (0558 UTC 20 October 2018)
found at http://www.aviationweather.gov/metar/data/
 
KBWI 200554Z 25008KT 10SM OVC080 13/10 A2988 RMK AO2 RAE04 SLP116 P0000 60001 T01330100 10144 20128 56026
KBWI 200521Z 2006/2112 22008KT P6SM -RA OVC100 
     FM200700 22008KT P6SM -SHRA OVC050 
     FM201000 22007KT P6SM OVC040 
     FM201400 26007KT P6SM BKN040 
     FM201900 27010G19KT P6SM SCT040 
     FM202300 29010G18KT P6SM SCT250 
     FM210900 31015G27KT P6SM BKN030 
     FM211100 31014G26KT P6SM SCT140
       
KMTN 200542Z AUTO 22007KT 10SM OVC090 15/10 A2989 RMK AO2
KMTN 192325Z 2000/2024 16008KT P6SM BKN200 
     FM200700 22008KT P6SM -SHRA OVC080 
     FM201000 22008KT P6SM OVC035 
     FM201400 25008KT P6SM BKN030 
     FM201600 26009KT P6SM BKN040 
     FM201700 26009KT P6SM SCT040 AMD NOT SKED 2002/2012
       
KCGE 200540Z AUTO 21006G12KT 10SM SCT050 BKN070 OVC120 17/10 A2992 RMK A01
KADW 200544Z AUTO 20014KT 10SM BKN070 13/10 A2989 RMK AO2 RAE43DZB43E44 SLP128 $
TAF AMD KADW 200230Z 2002/2107 20015G25KT 9999 BKN160 QNH2994INS 
     BECMG 2003/2004 21012G18KT 6000 -RA BKN020 QNH2984INS 
     TEMPO 2004/2009 23015G25KT 
     BECMG 2008/2009 22012G18KT 8000 -RA OVC005 QNH2980INS 
     BECMG 2012/2013 22009KT 8000 BR OVC010 QNH2978INS 
     BECMG 2017/2018 25012G18KT 9999 NSW OVC030 QNH2972INS 
     BECMG 2023/2024 30009KT 9999 BKN050 QNH2974INS TX17/2018Z TN11/2009Z
       
KCBE 200540Z AUTO 20004KT 10SM OVC031 13/09 A2990 RMK AO2 T01270089
KFME 200542Z AUTO 22006KT 10SM OVC080 11/10 A2990 RMK AO1
KFDK 200545Z AUTO 17006KT 10SM OVC080 13/10 A2990 RMK AO2
KGAI 200556Z AUTO 23006KT 10SM OVC070 13/09 A2989 RMK AO2 RAE13 SLP149 P0000 60000 T01280094 10144 20122 58025
KHGR 200553Z AUTO 23003KT 10SM OVC050 14/08 A2985 RMK AO2 RAB10E23 SLP116 P0000 60000 T01440083 10156 20139 56019
K2W6 200543Z AUTO 22007G14KT 10SM SCT120 14/10 A2993 RMK AO1
K2G4 200540Z AUTO 28007KT 2SM OVC002 07/07 A2988 RMK AO1
KOXB 200553Z AUTO 23014G25KT 10SM CLR 17/11 A2995 RMK AO2 SLP140 T01670111 10167 20128 56029
KSBY 200554Z AUTO 21010KT 10SM CLR 15/12 A2993 RMK AO2 SLP137 T01500122 10150 20111 58029
KSBY 200552Z 2006/2106 20007KT P6SM VCSH SCT060 BKN120 
     FM201100 23010KT P6SM -SHRA OVC040 
     FM201500 25012KT P6SM VCSH OVC020 
     FM201800 27011G17KT P6SM BKN060 
     FM210300 29010KT P6SM SCT100
       
KW29 200540Z AUTO 22008G15KT 10SM -RA BKN090 OVC120 15/10 A2990 RMK AO2 P0001
KDMW 200540Z AUTO 25007KT 10SM RA BKN085 OVC100 13/08 A2989 RMK AO2